Time;durP1;ratioP1;P1;durP2;ratioP2;P2;SDS_P1;SDS_P2;PMS_P1;PMS_P2;Temp;Humidity;BMP_temperature;BMP_pressure;BME280_temperature;BME280_humidity;BME280_pressure;Samples;Min_cycle;Max_cycle;Signal;HPM_P1;HPM_P2
2022/04/05 00:00:11;;;;;;;16.60;12.23;;;9.20;56.50;;;;;;5136542;27;20114;-66
2022/04/05 00:02:37;;;;;;;17.35;12.52;;;9.20;56.60;;;;;;5136264;27;20035;-66
2022/04/05 00:05:03;;;;;;;14.20;10.93;;;9.20;56.70;;;;;;5137109;27;20080;-67
2022/04/05 00:07:29;;;;;;;18.50;12.43;;;9.20;56.70;;;;;;5136505;27;20386;-66
2022/04/05 00:09:55;;;;;;;17.83;12.40;;;9.20;56.70;;;;;;5136953;27;20026;-67
2022/04/05 00:12:21;;;;;;;15.77;11.60;;;9.20;56.80;;;;;;5137006;27;20027;-66
2022/04/05 00:14:47;;;;;;;17.80;11.20;;;9.10;56.80;;;;;;5136750;27;20080;-66
2022/04/05 00:17:13;;;;;;;17.88;12.35;;;9.10;56.90;;;;;;5136940;27;20035;-66
2022/04/05 00:20:13;;;;;;;18.55;11.95;;;9.10;57.10;;;;;;5136578;27;20027;-66
2022/04/05 00:22:39;;;;;;;18.30;12.15;;;9.00;57.10;;;;;;5097541;28;20034;-66
2022/04/05 00:25:05;;;;;;;17.73;12.43;;;9.00;57.10;;;;;;5097801;28;20020;-66
2022/04/05 00:27:32;;;;;;;15.80;11.82;;;9.00;57.30;;;;;;5126886;27;20398;-66
2022/04/05 00:29:59;;;;;;;17.20;12.50;;;9.00;57.40;;;;;;5136770;27;20019;-66
2022/04/05 00:32:26;;;;;;;19.75;13.95;;;9.00;57.50;;;;;;5136349;27;20046;-66
2022/04/05 00:34:52;;;;;;;18.80;12.50;;;8.90;57.60;;;;;;5135346;27;20035;-66
2022/04/05 00:37:18;;;;;;;17.85;12.50;;;9.00;57.70;;;;;;5127171;27;20467;-66
2022/04/05 00:39:45;;;;;;;16.50;11.70;;;9.00;57.70;;;;;;5106928;28;20055;-67
2022/04/05 00:42:11;;;;;;;19.05;12.65;;;9.00;57.70;;;;;;5104307;28;20042;-66
2022/04/05 00:44:38;;;;;;;16.00;12.25;;;9.00;57.70;;;;;;5103596;27;20024;-66
2022/04/05 00:47:30;;;;;;;20.10;13.88;;;9.00;57.80;;;;;;5126387;27;20093;-66
2022/04/05 00:49:56;;;;;;;16.10;12.00;;;9.00;57.70;;;;;;5099813;28;20391;-66
2022/04/05 00:52:23;;;;;;;15.68;12.05;;;9.00;57.70;;;;;;5116153;28;20027;-65
2022/04/05 00:54:52;;;;;;;20.15;12.68;;;8.90;57.80;;;;;;5116201;28;20028;-65
2022/04/05 00:57:23;;;;;;;16.85;11.88;;;8.90;58.00;;;;;;5115468;28;20019;-65
2022/04/05 01:00:02;;;;;;;16.80;13.05;;;8.90;57.90;;;;;;5097415;28;20032;-65
2022/04/05 01:02:30;;;;;;;23.70;14.82;;;8.90;58.00;;;;;;5115172;28;20027;-65
2022/04/05 01:04:56;;;;;;;18.50;12.93;;;8.90;57.90;;;;;;5093594;28;20016;-65
2022/04/05 01:07:23;;;;;;;15.77;12.07;;;8.90;58.10;;;;;;5091239;28;20058;-66
2022/04/05 01:09:59;;;;;;;15.60;11.75;;;8.90;58.10;;;;;;5097173;28;20195;-64
2022/04/05 01:12:25;;;;;;;17.08;11.68;;;8.90;58.20;;;;;;5114552;28;20106;-65
2022/04/05 01:14:51;;;;;;;19.27;12.68;;;8.90;58.40;;;;;;5096916;28;20110;-64
2022/04/05 01:17:18;;;;;;;16.05;11.95;;;8.90;58.50;;;;;;5096681;28;20558;-64
2022/04/05 01:19:44;;;;;;;17.35;12.43;;;8.90;58.40;;;;;;5096169;28;20028;-65
2022/04/05 01:22:10;;;;;;;15.38;11.35;;;8.90;58.50;;;;;;5096651;28;20062;-64
2022/04/05 01:24:36;;;;;;;16.20;12.07;;;8.90;58.50;;;;;;5115082;28;20076;-64
2022/04/05 01:27:04;;;;;;;16.50;11.38;;;8.90;58.50;;;;;;5096480;28;20027;-64
2022/04/05 01:29:31;;;;;;;19.02;13.07;;;8.90;58.50;;;;;;5114977;28;20038;-64
2022/04/05 01:31:58;;;;;;;18.92;12.50;;;8.90;58.50;;;;;;5115274;28;20024;-64
2022/04/05 01:34:25;;;;;;;16.05;11.88;;;8.90;58.60;;;;;;5096197;28;20118;-64
2022/04/05 01:36:54;;;;;;;15.98;11.48;;;8.90;58.60;;;;;;5096418;28;20479;-64
2022/04/05 01:39:22;;;;;;;15.82;11.50;;;9.00;58.60;;;;;;5111432;27;20176;-64
2022/04/05 01:41:57;;;;;;;16.23;11.00;;;9.00;58.70;;;;;;5134949;27;20027;-65
2022/04/05 01:44:24;;;;;;;14.95;11.18;;;9.00;58.70;;;;;;5134347;27;20019;-65
2022/04/05 01:46:50;;;;;;;16.80;11.88;;;9.00;58.60;;;;;;5134506;27;20468;-64
2022/04/05 01:49:17;;;;;;;16.50;11.68;;;9.00;58.70;;;;;;5134821;27;20039;-64
2022/04/05 01:51:44;;;;;;;13.98;10.45;;;9.00;58.70;;;;;;5116661;27;20115;-64
2022/04/05 01:54:12;;;;;;;16.70;11.20;;;9.00;58.80;;;;;;5116258;27;20022;-64
2022/04/05 01:56:43;;;;;;;17.27;11.23;;;9.00;58.70;;;;;;5116036;27;20023;-64
2022/04/05 01:59:12;;;;;;;14.77;10.18;;;9.00;58.70;;;;;;5116419;27;20062;-64
2022/04/05 02:01:38;;;;;;;13.80;9.38;;;9.10;58.80;;;;;;5134748;27;20035;-66
2022/04/05 02:04:04;;;;;;;14.05;9.93;;;9.10;58.70;;;;;;5134280;27;20431;-65
2022/04/05 02:06:30;;;;;;;13.70;9.52;;;9.10;58.70;;;;;;5098556;28;20038;-66
2022/04/05 02:08:56;;;;;;;13.35;9.80;;;9.10;58.80;;;;;;5131468;27;20031;-65
2022/04/05 02:11:23;;;;;;;15.10;10.23;;;9.10;58.80;;;;;;5134732;27;20031;-65
2022/04/05 02:13:49;;;;;;;17.92;10.90;;;9.10;58.90;;;;;;5116324;27;20045;-67
2022/04/05 02:16:15;;;;;;;12.55;9.20;;;9.10;58.90;;;;;;5116154;27;20023;-66
2022/04/05 02:18:41;;;;;;;13.00;9.00;;;9.10;58.80;;;;;;5134602;27;20031;-65
2022/04/05 02:21:07;;;;;;;14.25;10.35;;;9.10;58.90;;;;;;5134245;27;20027;-65
2022/04/05 02:23:33;;;;;;;14.68;9.05;;;9.10;59.00;;;;;;5116178;27;20034;-64
2022/04/05 02:25:59;;;;;;;12.27;8.73;;;9.10;59.00;;;;;;5115999;27;20046;-65
2022/04/05 02:28:25;;;;;;;13.98;10.32;;;9.10;59.00;;;;;;5134455;27;20110;-65
2022/04/05 02:30:52;;;;;;;12.95;8.27;;;9.10;59.10;;;;;;5115857;27;20032;-66
2022/04/05 02:33:18;;;;;;;13.15;8.85;;;9.20;59.20;;;;;;5133427;27;20113;-65
2022/04/05 02:35:43;;;;;;;9.68;7.40;;;9.20;59.20;;;;;;5132648;27;20058;-65
2022/04/05 02:38:10;;;;;;;11.02;7.90;;;9.20;59.10;;;;;;5112096;28;20035;-65
2022/04/05 02:40:36;;;;;;;12.95;8.60;;;9.20;59.00;;;;;;5107051;27;20130;-65
2022/04/05 02:43:03;;;;;;;10.57;7.18;;;9.20;58.90;;;;;;5134269;27;20034;-65
2022/04/05 02:45:30;;;;;;;10.70;7.80;;;9.30;58.80;;;;;;5115886;27;20031;-65
2022/04/05 02:47:56;;;;;;;11.38;7.88;;;9.20;58.70;;;;;;5133484;27;20435;-65
2022/04/05 02:50:22;;;;;;;10.80;7.72;;;9.20;58.70;;;;;;5133339;27;20102;-64
2022/04/05 02:52:49;;;;;;;11.50;8.13;;;9.20;58.80;;;;;;5115710;27;20118;-66
2022/04/05 02:55:15;;;;;;;9.55;7.22;;;9.20;58.90;;;;;;5133795;27;20031;-66
2022/04/05 02:57:43;;;;;;;15.10;7.40;;;9.10;58.90;;;;;;5115278;27;20129;-66
2022/04/05 03:00:11;;;;;;;9.60;7.53;;;9.20;59.10;;;;;;5115358;28;20066;-66
2022/04/05 03:02:38;;;;;;;9.38;7.10;;;9.20;59.10;;;;;;5133404;28;20079;-66
2022/04/05 03:05:06;;;;;;;9.60;7.07;;;9.10;59.00;;;;;;5112295;27;20059;-65
2022/04/05 03:07:34;;;;;;;10.13;6.60;;;9.20;59.10;;;;;;5095174;28;20080;-65
2022/04/05 03:10:01;;;;;;;11.18;7.63;;;9.10;59.00;;;;;;5108329;28;20077;-65
2022/04/05 03:12:27;;;;;;;10.95;7.65;;;9.10;59.00;;;;;;5115100;28;20027;-65
2022/04/05 03:14:53;;;;;;;10.45;7.57;;;9.10;59.10;;;;;;5115299;28;20023;-65
2022/04/05 03:17:18;;;;;;;10.98;7.03;;;9.10;59.10;;;;;;5115092;28;20035;-65
2022/04/05 03:19:44;;;;;;;10.25;6.28;;;9.10;59.20;;;;;;5115016;28;20466;-65
2022/04/05 03:22:10;;;;;;;8.52;6.32;;;9.10;59.40;;;;;;5115476;28;20065;-66
2022/04/05 03:24:36;;;;;;;10.13;7.15;;;9.10;59.40;;;;;;5114548;28;20607;-66
2022/04/05 03:27:02;;;;;;;9.38;6.68;;;9.10;59.40;;;;;;5115402;28;20118;-65
2022/04/05 03:29:28;;;;;;;10.80;7.03;;;9.10;59.30;;;;;;5133476;28;20034;-65
2022/04/05 03:31:54;;;;;;;9.75;6.95;;;9.10;59.40;;;;;;5115175;28;20023;-66
2022/04/05 03:34:20;;;;;;;12.02;7.03;;;9.10;59.40;;;;;;5133097;28;20042;-65
2022/04/05 03:36:46;;;;;;;9.90;6.90;;;9.10;59.50;;;;;;5114465;28;20110;-65
2022/04/05 03:39:13;;;;;;;11.73;7.55;;;9.10;59.60;;;;;;5116309;28;20139;-65
2022/04/05 03:41:41;;;;;;;11.00;7.15;;;9.10;59.70;;;;;;5112972;28;20051;-65
2022/04/05 03:44:07;;;;;;;11.00;6.95;;;9.10;59.70;;;;;;5113138;28;20436;-66
2022/04/05 03:46:33;;;;;;;9.95;7.40;;;9.10;59.80;;;;;;5113093;28;20043;-64
2022/04/05 03:49:00;;;;;;;11.70;7.57;;;9.10;59.90;;;;;;5112562;27;20028;-66
2022/04/05 03:51:26;;;;;;;10.05;6.60;;;9.10;59.90;;;;;;5133544;28;20126;-65
2022/04/05 03:53:52;;;;;;;16.05;8.10;;;9.10;59.90;;;;;;5114951;28;20027;-65
2022/04/05 03:56:19;;;;;;;13.27;8.45;;;9.10;60.00;;;;;;5133203;28;20027;-65
2022/04/05 03:58:44;;;;;;;13.00;8.00;;;9.10;60.10;;;;;;5114819;28;20076;-65
2022/04/05 04:01:10;;;;;;;13.43;7.07;;;9.00;60.20;;;;;;5115137;28;20037;-65
2022/04/05 04:03:36;;;;;;;10.95;7.80;;;9.00;60.20;;;;;;5132123;28;20730;-65
2022/04/05 04:06:02;;;;;;;13.57;8.27;;;9.00;60.20;;;;;;5132474;28;20427;-65
2022/04/05 04:08:27;;;;;;;11.23;7.75;;;9.00;60.50;;;;;;5115929;27;20027;-65
2022/04/05 04:10:53;;;;;;;9.75;7.15;;;9.00;60.60;;;;;;5118245;27;20023;-65
2022/04/05 04:13:20;;;;;;;11.43;7.72;;;8.90;60.70;;;;;;5118313;27;20079;-65
2022/04/05 04:15:46;;;;;;;11.40;7.32;;;8.90;60.90;;;;;;5118115;27;20022;-65
2022/04/05 04:18:11;;;;;;;16.75;8.77;;;8.90;61.00;;;;;;5118329;27;20501;-66
2022/04/05 04:20:42;;;;;;;12.90;8.18;;;8.90;61.20;;;;;;5118278;27;20023;-66
2022/04/05 04:23:09;;;;;;;12.25;8.05;;;8.90;61.20;;;;;;5136564;27;20030;-65
2022/04/05 04:25:37;;;;;;;13.90;7.95;;;8.90;61.30;;;;;;5118299;27;20118;-65
2022/04/05 04:28:05;;;;;;;15.55;8.45;;;8.90;61.50;;;;;;5135400;27;20023;-65
2022/04/05 04:30:35;;;;;;;12.75;8.55;;;8.90;61.60;;;;;;5137070;27;20655;-65
2022/04/05 04:33:02;;;;;;;14.10;7.55;;;8.90;61.70;;;;;;5133025;27;20113;-65
2022/04/05 04:35:29;;;;;;;18.30;8.15;;;8.90;61.70;;;;;;5126065;27;20092;-65
2022/04/05 04:37:55;;;;;;;12.43;7.57;;;8.90;61.70;;;;;;5136579;27;20031;-65
2022/04/05 04:40:21;;;;;;;10.90;7.63;;;8.90;61.80;;;;;;5135795;27;20142;-64
2022/04/05 04:42:47;;;;;;;14.88;8.88;;;9.00;61.90;;;;;;5117953;27;20034;-64
2022/04/05 04:45:14;;;;;;;11.98;8.05;;;9.00;61.90;;;;;;5136118;27;20027;-65
2022/04/05 04:47:40;;;;;;;9.52;7.10;;;9.00;61.90;;;;;;5135810;27;20019;-65
2022/04/05 04:50:08;;;;;;;11.18;7.93;;;9.00;62.00;;;;;;5136323;27;20035;-66
2022/04/05 04:52:34;;;;;;;12.40;7.90;;;9.00;62.00;;;;;;5103462;28;20023;-65
2022/04/05 04:55:00;;;;;;;12.50;7.85;;;9.10;62.20;;;;;;5093852;28;20028;-65
2022/04/05 04:57:26;;;;;;;11.40;8.35;;;9.10;62.20;;;;;;5114623;28;20099;-65
2022/04/05 04:59:53;;;;;;;12.15;7.65;;;9.10;62.10;;;;;;5106772;27;20118;-65
2022/04/05 05:02:22;;;;;;;12.55;9.13;;;9.20;62.10;;;;;;5117368;27;20050;-65
2022/04/05 05:04:51;;;;;;;10.50;7.28;;;9.20;62.00;;;;;;5109795;27;20058;-67
2022/04/05 05:07:19;;;;;;;13.50;7.25;;;9.30;62.00;;;;;;5094334;28;20070;-66
2022/04/05 05:09:45;;;;;;;11.48;8.73;;;9.30;62.00;;;;;;5094697;28;20081;-65
2022/04/05 05:12:11;;;;;;;11.80;8.35;;;9.30;61.90;;;;;;5120292;27;20031;-66
2022/04/05 05:14:38;;;;;;;9.02;7.07;;;9.40;62.50;;;;;;5117633;27;20373;-66
2022/04/05 05:17:07;;;;;;;12.10;8.40;;;9.40;61.60;;;;;;5104706;28;20483;-65
2022/04/05 05:19:33;;;;;;;12.20;8.38;;;9.40;61.70;;;;;;5115181;28;20076;-65
2022/04/05 05:21:59;;;;;;;10.73;7.45;;;9.50;61.90;;;;;;5096513;28;20027;-65
2022/04/05 05:24:25;;;;;;;14.65;9.60;;;9.50;61.90;;;;;;5096867;28;20035;-65
2022/04/05 05:26:51;;;;;;;15.75;9.50;;;9.50;62.00;;;;;;5096886;28;20023;-65
2022/04/05 05:29:19;;;;;;;19.55;9.52;;;9.60;61.80;;;;;;5124043;27;20139;-65
2022/04/05 05:31:45;;;;;;;16.73;9.40;;;9.60;61.90;;;;;;5117046;27;20081;-65
2022/04/05 05:34:20;;;;;;;14.85;9.20;;;9.60;61.90;;;;;;5101478;28;20398;-65
2022/04/05 05:36:45;;;;;;;12.18;7.88;;;9.70;61.90;;;;;;5115064;28;20019;-65
2022/04/05 05:39:11;;;;;;;16.15;9.00;;;9.70;61.60;;;;;;5114709;28;20108;-66
2022/04/05 05:41:38;;;;;;;11.90;8.57;;;9.80;61.80;;;;;;5114745;28;20055;-65
2022/04/05 05:44:04;;;;;;;14.32;10.13;;;9.80;61.70;;;;;;5096592;28;20028;-65
2022/04/05 05:46:30;;;;;;;10.35;7.72;;;9.80;61.80;;;;;;5095878;28;20031;-65
2022/04/05 05:48:56;;;;;;;11.75;8.40;;;9.80;61.60;;;;;;5114046;28;20031;-66
2022/04/05 05:51:22;;;;;;;10.70;8.18;;;9.90;61.30;;;;;;5114767;28;20035;-65
2022/04/05 05:53:47;;;;;;;12.02;8.13;;;9.90;61.30;;;;;;5114686;28;20020;-67
2022/04/05 05:56:14;;;;;;;12.35;7.88;;;9.90;61.10;;;;;;5096246;28;20076;-66
2022/04/05 05:58:41;;;;;;;10.60;8.15;;;9.90;61.20;;;;;;5114128;28;20043;-66
2022/04/05 06:01:06;;;;;;;12.43;7.43;;;10.00;61.40;;;;;;5095675;28;20080;-65
2022/04/05 06:03:35;;;;;;;10.73;7.93;;;10.00;61.40;;;;;;5113451;28;20102;-65
2022/04/05 06:06:01;;;;;;;10.25;7.55;;;10.00;61.20;;;;;;5096070;28;20463;-65
2022/04/05 06:08:30;;;;;;;9.63;6.30;;;10.00;61.20;;;;;;5114529;28;20028;-66
2022/04/05 06:10:56;;;;;;;9.68;6.63;;;10.00;60.80;;;;;;5095538;28;20030;-66
2022/04/05 06:13:22;;;;;;;10.30;7.38;;;10.10;60.70;;;;;;5113444;28;20032;-66
2022/04/05 06:15:48;;;;;;;12.13;6.97;;;10.10;60.70;;;;;;5113881;28;20042;-65
2022/04/05 06:18:13;;;;;;;9.10;6.57;;;10.10;60.40;;;;;;5113918;28;20027;-66
2022/04/05 06:20:39;;;;;;;11.65;7.50;;;10.10;60.30;;;;;;5114276;28;20039;-66
2022/04/05 06:23:05;;;;;;;11.40;6.60;;;10.10;60.20;;;;;;5113821;28;20050;-66
2022/04/05 06:25:37;;;;;;;10.23;7.07;;;10.10;59.90;;;;;;5114343;28;20361;-66
2022/04/05 06:28:07;;;;;;;9.10;6.05;;;10.10;59.80;;;;;;5095259;28;20034;-66
2022/04/05 06:30:34;;;;;;;9.38;6.68;;;10.10;60.20;;;;;;5094626;28;20379;-66
2022/04/05 06:33:15;;;;;;;10.88;7.03;;;10.00;60.30;;;;;;5113406;28;20027;-66
2022/04/05 06:35:53;;;;;;;11.27;6.70;;;10.00;60.80;;;;;;5094780;28;20061;-66
2022/04/05 06:38:20;;;;;;;16.85;7.03;;;9.90;61.40;;;;;;5113958;28;20054;-67
2022/04/05 06:40:46;;;;;;;9.85;6.68;;;9.90;61.60;;;;;;5112070;27;20047;-68
2022/04/05 06:43:13;;;;;;;8.68;6.15;;;9.90;62.10;;;;;;5108731;28;20050;-68
2022/04/05 06:45:39;;;;;;;12.63;7.43;;;9.90;62.30;;;;;;5125216;27;20020;-69
2022/04/05 06:48:06;;;;;;;9.57;6.60;;;9.80;62.60;;;;;;5108257;28;20430;-69
2022/04/05 06:50:33;;;;;;;10.50;7.15;;;9.80;63.00;;;;;;5094598;28;20027;-70
2022/04/05 06:53:00;;;;;;;12.10;7.22;;;9.70;63.10;;;;;;5095663;28;20033;-71
2022/04/05 06:55:29;;;;;;;11.63;6.90;;;9.70;63.30;;;;;;5113897;28;20027;-71
2022/04/05 06:57:56;;;;;;;9.20;6.32;;;9.70;63.70;;;;;;5095368;28;20036;-72
2022/04/05 07:00:23;;;;;;;9.00;6.72;;;9.60;63.90;;;;;;5112685;28;20479;-73
2022/04/05 07:02:54;;;;;;;8.15;6.22;;;9.60;64.20;;;;;;5113304;28;20015;-74
2022/04/05 07:05:20;;;;;;;9.43;6.63;;;9.60;64.60;;;;;;5091611;28;20028;-76
2022/04/05 07:07:46;;;;;;;8.57;6.20;;;9.60;64.90;;;;;;5129723;28;20031;-80
2022/04/05 07:10:17;;;;;;;13.88;6.53;;;9.50;64.80;;;;;;5098506;28;20386;-75
2022/04/05 07:12:44;;;;;;;9.52;6.15;;;9.50;65.20;;;;;;5095440;28;20026;-74
2022/04/05 07:15:11;;;;;;;8.88;6.30;;;9.50;65.70;;;;;;5094804;28;20485;-72
2022/04/05 07:17:40;;;;;;;9.73;6.47;;;9.50;66.00;;;;;;5113169;28;20109;-76
2022/04/05 07:20:09;;;;;;;8.90;6.18;;;9.60;66.30;;;;;;5113595;28;20356;-76
2022/04/05 07:22:47;;;;;;;6.65;5.57;;;9.60;66.20;;;;;;5096136;28;20036;-75
2022/04/05 07:25:13;;;;;;;9.60;5.97;;;9.60;66.40;;;;;;5097126;28;20107;-75
2022/04/05 07:27:39;;;;;;;7.80;5.65;;;9.50;66.40;;;;;;5133989;28;20023;-73
2022/04/05 07:30:05;;;;;;;10.00;6.15;;;9.50;66.30;;;;;;5101999;28;20032;-72
2022/04/05 07:32:37;;;;;;;8.00;5.82;;;9.50;66.40;;;;;;5094885;28;20024;-71
2022/04/05 07:35:03;;;;;;;8.30;5.60;;;9.50;66.80;;;;;;5110914;28;20020;-71
2022/04/05 07:37:30;;;;;;;7.47;5.55;;;9.50;67.20;;;;;;5092318;28;20050;-71
2022/04/05 07:39:58;;;;;;;10.60;6.00;;;9.50;66.70;;;;;;5115539;28;20456;-70
2022/04/05 07:42:24;;;;;;;6.88;5.63;;;9.50;66.40;;;;;;5095296;28;20051;-70
2022/04/05 07:44:50;;;;;;;10.45;6.57;;;9.50;66.70;;;;;;5117261;28;20073;-70
2022/04/05 07:47:16;;;;;;;7.82;5.28;;;9.50;66.90;;;;;;5098990;28;20463;-70
2022/04/05 07:49:42;;;;;;;9.27;6.20;;;9.50;67.50;;;;;;5117176;27;20067;-69
2022/04/05 07:52:07;;;;;;;7.57;5.93;;;9.50;68.10;;;;;;5116945;28;20076;-69
2022/04/05 07:54:33;;;;;;;7.47;5.60;;;9.50;68.40;;;;;;5115833;28;20438;-69
2022/04/05 07:57:00;;;;;;;6.70;4.80;;;9.50;68.60;;;;;;5119153;27;20024;-69
2022/04/05 07:59:26;;;;;;;7.80;5.38;;;9.60;68.80;;;;;;5102093;28;20387;-70
2022/04/05 08:01:52;;;;;;;6.57;5.10;;;9.60;68.70;;;;;;5098779;27;20126;-70
2022/04/05 08:04:18;;;;;;;6.45;5.22;;;9.60;69.10;;;;;;5114945;28;20111;-70
2022/04/05 08:06:44;;;;;;;7.20;5.97;;;9.70;69.60;;;;;;5117339;27;20028;-69
2022/04/05 08:09:09;;;;;;;5.53;4.30;;;9.70;69.90;;;;;;5097849;28;20115;-71
2022/04/05 08:11:35;;;;;;;6.97;4.68;;;9.80;70.30;;;;;;5120042;27;20023;-69
2022/04/05 08:14:01;;;;;;;7.50;5.45;;;9.90;70.50;;;;;;5113583;27;20057;-69
2022/04/05 08:16:28;;;;;;;10.13;5.60;;;10.00;70.90;;;;;;5099506;28;20031;-69
2022/04/05 08:18:54;;;;;;;7.85;5.20;;;10.20;71.30;;;;;;5116434;28;20020;-71
2022/04/05 08:21:20;;;;;;;17.73;5.68;;;10.30;70.80;;;;;;5114758;28;20475;-70
2022/04/05 08:23:48;;;;;;;5.95;4.50;;;10.40;70.40;;;;;;5113848;28;20024;-70
2022/04/05 08:26:14;;;;;;;5.50;4.35;;;10.40;69.90;;;;;;5114695;28;20020;-69
2022/04/05 08:28:40;;;;;;;6.78;4.75;;;10.60;69.60;;;;;;5116524;28;20035;-70
2022/04/05 08:31:05;;;;;;;6.40;4.93;;;10.60;68.30;;;;;;5114617;28;20641;-71
2022/04/05 08:33:31;;;;;;;6.40;4.95;;;10.60;68.20;;;;;;5115968;28;20066;-70
2022/04/05 08:35:58;;;;;;;5.53;4.15;;;10.60;68.00;;;;;;5113491;28;20028;-70
2022/04/05 08:38:23;;;;;;;5.70;4.60;;;10.70;68.40;;;;;;5097980;28;20035;-70
2022/04/05 08:40:50;;;;;;;5.13;4.15;;;10.70;67.60;;;;;;5109970;28;20483;-71
2022/04/05 08:43:15;;;;;;;5.43;4.07;;;10.80;67.40;;;;;;5097142;28;20023;-70
2022/04/05 08:45:45;;;;;;;5.53;4.35;;;10.90;66.80;;;;;;5111882;27;20073;-69
2022/04/05 08:48:13;;;;;;;6.47;4.70;;;10.90;65.90;;;;;;5096359;28;20422;-69
2022/04/05 08:50:39;;;;;;;5.55;4.45;;;10.90;66.10;;;;;;5114626;28;20042;-69
2022/04/05 08:53:05;;;;;;;6.88;4.43;;;11.00;66.20;;;;;;5097404;28;20118;-71
2022/04/05 08:55:30;;;;;;;6.03;4.65;;;11.00;65.50;;;;;;5115299;28;20418;-72
2022/04/05 08:57:57;;;;;;;5.20;4.15;;;11.10;65.70;;;;;;5114660;28;20112;-69
2022/04/05 09:00:24;;;;;;;14.02;4.47;;;11.20;66.30;;;;;;5110454;28;20107;-69
2022/04/05 09:03:01;;;;;;;5.85;4.43;;;11.30;66.10;;;;;;5117985;27;20114;-70
2022/04/05 09:05:30;;;;;;;4.78;4.15;;;11.40;65.30;;;;;;5105263;28;20479;-71
2022/04/05 09:08:26;;;;;;;4.80;4.07;;;11.50;65.50;;;;;;5115808;28;20028;-69
2022/04/05 09:10:54;;;;;;;5.53;4.20;;;11.60;64.60;;;;;;5088072;28;20406;-71
2022/04/05 09:13:25;;;;;;;5.88;4.50;;;11.70;64.50;;;;;;5076535;28;20063;-69
2022/04/05 09:15:53;;;;;;;5.10;4.10;;;11.80;64.60;;;;;;5094829;28;20016;-70
2022/04/05 09:18:32;;;;;;;6.10;4.32;;;11.80;63.80;;;;;;5094235;28;20104;-70
2022/04/05 09:20:58;;;;;;;5.85;4.25;;;12.00;64.30;;;;;;5114507;28;20019;-70
2022/04/05 09:23:29;;;;;;;5.45;4.38;;;12.10;64.50;;;;;;5096379;28;20023;-70
2022/04/05 09:25:58;;;;;;;6.57;4.72;;;12.20;64.90;;;;;;5091642;28;20028;-70
2022/04/05 09:28:47;;;;;;;6.90;4.55;;;12.40;65.00;;;;;;5114503;28;20039;-70
2022/04/05 09:31:21;;;;;;;6.38;4.30;;;12.60;64.50;;;;;;5096194;28;20459;-69
2022/04/05 09:34:12;;;;;;;5.47;4.32;;;12.80;65.20;;;;;;5113748;28;20051;-70
2022/04/05 09:36:41;;;;;;;6.35;4.75;;;13.00;63.60;;;;;;5079468;28;20081;-70
2022/04/05 09:39:26;;;;;;;4.90;4.00;;;13.10;62.20;;;;;;5099472;27;20107;-70
2022/04/05 09:42:05;;;;;;;6.57;4.50;;;13.20;62.00;;;;;;5134246;27;20193;-71
2022/04/05 09:44:33;;;;;;;5.35;4.28;;;13.20;61.70;;;;;;5130910;27;20281;-69
2022/04/05 09:47:10;;;;;;;5.32;3.97;;;13.30;60.80;;;;;;5126737;27;20020;-69
2022/04/05 09:49:41;;;;;;;5.18;4.20;;;13.30;59.90;;;;;;5105080;28;20080;-69
2022/04/05 09:52:22;;;;;;;4.88;3.97;;;13.30;59.50;;;;;;5115719;27;20028;-69
2022/04/05 09:54:48;;;;;;;3.75;3.30;;;13.20;59.60;;;;;;5115847;27;20522;-69
2022/04/05 09:57:14;;;;;;;5.90;4.43;;;13.30;60.00;;;;;;5126928;27;20470;-69
2022/04/05 09:59:42;;;;;;;9.20;4.00;;;13.30;60.20;;;;;;5116095;27;20024;-69
2022/04/05 10:02:10;;;;;;;5.00;4.20;;;13.30;60.10;;;;;;5133459;27;20027;-70
2022/04/05 10:05:04;;;;;;;4.93;3.38;;;13.30;60.30;;;;;;5129868;27;20034;-69
2022/04/05 10:07:31;;;;;;;5.43;3.75;;;13.30;60.60;;;;;;5133664;27;20378;-69
2022/04/05 10:10:03;;;;;;;5.78;4.10;;;13.30;60.10;;;;;;5134445;27;20406;-70
2022/04/05 10:12:29;;;;;;;7.63;4.20;;;13.30;60.40;;;;;;5116401;27;20085;-70
2022/04/05 10:14:56;;;;;;;5.47;3.72;;;13.20;60.40;;;;;;5134506;27;20020;-70
2022/04/05 10:17:26;;;;;;;7.50;4.32;;;13.20;60.40;;;;;;5135042;27;20027;-69
2022/04/05 10:19:54;;;;;;;7.47;4.35;;;13.10;59.60;;;;;;5134509;27;20027;-70
2022/04/05 10:22:22;;;;;;;6.13;4.05;;;13.00;59.40;;;;;;5116551;27;20035;-69
2022/04/05 10:24:53;;;;;;;4.97;4.20;;;13.00;59.80;;;;;;5116441;27;20027;-69
2022/04/05 10:27:23;;;;;;;5.25;3.90;;;12.90;60.30;;;;;;5134841;27;20110;-70
2022/04/05 10:30:17;;;;;;;6.40;3.95;;;12.80;61.00;;;;;;5119020;27;20038;-70
2022/04/05 10:32:46;;;;;;;5.35;4.10;;;12.90;61.60;;;;;;5082325;28;20463;-69
2022/04/05 10:35:13;;;;;;;6.20;4.55;;;12.80;62.10;;;;;;5130017;27;20055;-70
2022/04/05 10:37:40;;;;;;;6.00;4.25;;;12.80;61.40;;;;;;5113972;28;20447;-71
2022/04/05 10:40:07;;;;;;;5.57;4.28;;;12.80;61.60;;;;;;5095332;28;20051;-70
2022/04/05 10:42:52;;;;;;;7.32;3.83;;;12.90;62.30;;;;;;5113928;28;20024;-70
2022/04/05 10:45:29;;;;;;;7.07;4.25;;;13.00;62.90;;;;;;5095725;28;20019;-69
2022/04/05 10:48:18;;;;;;;5.82;3.92;;;13.10;63.30;;;;;;5095661;28;20086;-69
2022/04/05 10:51:09;;;;;;;7.95;4.43;;;13.30;63.50;;;;;;5113993;28;20020;-69
2022/04/05 10:54:17;;;;;;;5.10;3.97;;;13.40;62.00;;;;;;5080483;28;20038;-69
2022/04/05 10:56:25;;;;;;;5.80;3.40;;;13.50;62.20;;;;;;5112796;28;20031;-70
2022/04/05 10:58:54;;;;;;;4.50;3.65;;;13.70;61.40;;;;;;5113313;28;20035;-70
2022/04/05 11:01:21;;;;;;;5.05;3.30;;;13.80;61.80;;;;;;5095490;28;20024;-68
2022/04/05 11:04:18;;;;;;;6.70;3.50;;;13.90;61.20;;;;;;5094953;28;20035;-69
2022/04/05 11:07:00;;;;;;;5.63;3.25;;;14.00;60.40;;;;;;5095390;28;20020;-68
2022/04/05 11:09:33;;;;;;;4.63;2.95;;;14.10;60.80;;;;;;5094973;28;20035;-71
2022/04/05 11:12:06;;;;;;;3.72;3.05;;;14.20;59.60;;;;;;5111954;28;20087;-69
2022/04/05 11:14:44;;;;;;;3.53;3.15;;;14.20;59.30;;;;;;5092964;28;20210;-69
2022/04/05 11:17:13;;;;;;;4.68;3.03;;;14.30;59.50;;;;;;5094954;28;20050;-70
2022/04/05 11:19:42;;;;;;;4.55;3.08;;;14.40;59.50;;;;;;5114846;28;20038;-69
2022/04/05 11:22:20;;;;;;;3.42;2.83;;;14.40;60.30;;;;;;5114258;28;20523;-70
2022/04/05 11:25:22;;;;;;;3.60;3.03;;;14.50;60.20;;;;;;5114937;28;20050;-69
2022/04/05 11:27:49;;;;;;;4.68;3.20;;;14.60;59.80;;;;;;5081254;28;20032;-69
2022/04/05 11:30:22;;;;;;;5.07;3.47;;;14.70;60.80;;;;;;5117706;28;20414;-69
2022/04/05 11:33:09;;;;;;;4.85;3.55;;;14.80;59.50;;;;;;5117535;28;20373;-69
2022/04/05 11:35:37;;;;;;;5.05;3.67;;;14.80;58.10;;;;;;5115876;28;20465;-69
2022/04/05 11:38:04;;;;;;;3.40;2.80;;;14.80;59.00;;;;;;5115982;28;20375;-69
2022/04/05 11:40:30;;;;;;;4.55;3.05;;;14.90;59.10;;;;;;5116233;28;20047;-69
2022/04/05 11:43:03;;;;;;;4.50;2.80;;;14.80;58.40;;;;;;5117050;28;20027;-69
2022/04/05 11:45:30;;;;;;;4.20;3.03;;;14.80;58.40;;;;;;5098779;28;20351;-69
2022/04/05 11:47:56;;;;;;;6.63;2.70;;;14.80;59.00;;;;;;5114550;28;20068;-69
2022/04/05 11:50:22;;;;;;;5.97;3.30;;;14.70;57.90;;;;;;5098929;28;20057;-69
2022/04/05 11:52:49;;;;;;;5.85;3.10;;;14.70;57.70;;;;;;5098977;28;20020;-69
2022/04/05 11:58:09;;;;;;;3.50;2.88;;;14.50;57.70;;;;;;5117049;28;20456;-69
2022/04/05 12:00:51;;;;;;;8.02;3.08;;;14.40;57.40;;;;;;5098349;28;20031;-69
2022/04/05 12:03:16;;;;;;;6.13;2.80;;;14.30;57.90;;;;;;5098026;28;20186;-70
2022/04/05 12:05:43;;;;;;;3.80;2.95;;;14.30;58.50;;;;;;5116692;28;20100;-70
2022/04/05 12:08:13;;;;;;;4.45;2.38;;;14.30;58.80;;;;;;5116853;28;20110;-69
2022/04/05 12:10:41;;;;;;;3.08;2.58;;;14.30;58.30;;;;;;5116853;28;20024;-70
2022/04/05 12:13:07;;;;;;;3.50;2.65;;;14.40;58.60;;;;;;5098465;28;20140;-69
2022/04/05 12:15:34;;;;;;;3.38;2.75;;;14.40;58.40;;;;;;5098529;28;20174;-70
2022/04/05 12:18:21;;;;;;;3.95;3.35;;;14.40;58.60;;;;;;5116558;28;20104;-70
2022/04/05 12:21:08;;;;;;;3.63;2.88;;;14.40;58.00;;;;;;5098353;28;20111;-70
2022/04/05 12:23:41;;;;;;;3.85;2.92;;;14.50;58.70;;;;;;5098398;28;20032;-69
2022/04/05 12:26:23;;;;;;;3.60;2.63;;;14.60;58.40;;;;;;5098089;28;20027;-70
2022/04/05 12:28:54;;;;;;;3.28;2.50;;;14.70;58.50;;;;;;5115784;28;20108;-69
2022/04/05 12:31:22;;;;;;;2.45;2.25;;;14.90;59.40;;;;;;5116436;28;20435;-70
2022/04/05 12:34:08;;;;;;;3.55;2.58;;;15.00;59.40;;;;;;5097382;28;20031;-70
2022/04/05 12:36:43;;;;;;;3.78;2.47;;;15.10;57.90;;;;;;5097364;28;20032;-70
2022/04/05 12:39:22;;;;;;;4.05;3.05;;;15.10;56.30;;;;;;5120345;27;20055;-70
2022/04/05 12:42:07;;;;;;;3.30;2.72;;;15.10;56.40;;;;;;5134936;27;20031;-70
2022/04/05 12:44:44;;;;;;;3.88;2.60;;;15.00;56.70;;;;;;5136961;27;20114;-70
2022/04/05 12:47:12;;;;;;;2.97;2.50;;;14.90;55.80;;;;;;5136841;27;20103;-70
2022/04/05 12:49:54;;;;;;;4.40;2.45;;;14.90;56.00;;;;;;5134393;27;20035;-70
2022/04/05 12:52:25;;;;;;;2.83;2.28;;;14.80;56.50;;;;;;5108349;27;20359;-71
2022/04/05 12:54:54;;;;;;;2.80;2.50;;;14.80;56.30;;;;;;5117693;27;20055;-70
2022/04/05 12:57:34;;;;;;;3.55;2.42;;;14.80;57.00;;;;;;5117853;27;20027;-70